Thuro By, Denmark
Current Conditions -  °F | °C
As of 6:53 PM on Monday 22 Dec 2014 (Local Time) from EKSB Reporting Station
Light Rain Light Rain  
Wind Chill: 43°   Ceiling: 1000
Heat Index: 48°   Visibility: 3mi
Dew Point: 46°   Wind: 13mph
Humidity: 93%   Direction: 250°WSW
Pressure: 29.62"   Gusts: NA
Location:  55.05°N, 10.66°E
Report Text: EKSB 221753Z 25011KT 230V290 5000 -RA BKN010 09/08 Q1003
Loading
Personal Weather Stations






























Interactive Weather Map New forecast layout! Learn more

10-Day Weather Forecast

Advertisements
Track Severe Weather on mobile